Bakersfield, California
Current Conditions -  °F | °C
As of 11:54 PM on Sunday 25 Jan 2015 (Local Time) from KBFL Reporting Station
Haze Haze  
Wind Chill:   Ceiling: Unl
Heat Index:   Visibility: 4mi
Dew Point:   Wind: 3mph
Humidity: 83%   Direction: 320°NW
Pressure: 30.1"   Gusts: NA
Location:  35.37°N, 119.01°W
Report Text: KBFL 260754Z AUTO 32003KT 4SM HZ CLR 08/05 A3010 RMK AO2 SLP194 T00780050 401330044
Loading
Personal Weather Stations






























Interactive Weather Map New forecast layout! Learn more

10-Day Weather Forecast

Advertisements
Track Severe Weather on mobile